Time;durP1;ratioP1;P1;durP2;ratioP2;P2;SDS_P1;SDS_P2;PMS_P1;PMS_P2;Temp;Humidity;BMP_temperature;BMP_pressure;BME280_temperature;BME280_humidity;BME280_pressure;Samples;Min_cycle;Max_cycle;Signal;HPM_P1;HPM_P2
2020/12/18 00:06:07;;;;;;;52.8;41.4;;;;;;;1.29;82.82422;99679.09;;;;
2020/12/18 00:16:05;;;;;;;53.1;42.4;;;;;;;0.99;83.27344;99674.51;;;;
2020/12/18 00:26:03;;;;;;;44;35.1;;;;;;;0.81;83.96582;99674.46;;;;
2020/12/18 00:36:01;;;;;;;51.9;36;;;;;;;0.9;84.87305;99675.02;;;;
2020/12/18 00:45:58;;;;;;;50.7;36.3;;;;;;;1.12;84.52051;99691.33;;;;
2020/12/18 00:55:56;;;;;;;41.5;30.2;;;;;;;1.27;84.35254;99697.11;;;;
2020/12/18 01:05:54;;;;;;;49.3;33.8;;;;;;;1.34;83.82617;99698.66;;;;
2020/12/18 01:15:56;;;;;;;40.3;30.1;;;;;;;1.43;83.75586;99693.86;;;;
2020/12/18 01:25:49;;;;;;;48;36.1;;;;;;;1.51;83.71777;99702.36;;;;
2020/12/18 01:35:51;;;;;;;46.6;36.4;;;;;;;1.53;83.25879;99687;;;;
2020/12/18 01:45:45;;;;;;;40.9;29.6;;;;;;;1.72;82.88477;99700.28;;;;
2020/12/18 01:55:43;;;;;;;39.4;31.1;;;;;;;1.77;82.66406;99701.22;;;;
2020/12/18 02:05:41;;;;;;;41.9;30.9;;;;;;;1.7;83.01367;99702.36;;;;
2020/12/18 02:15:39;;;;;;;44.3;31.8;;;;;;;1.75;82.74805;99684.7;;;;
2020/12/18 02:25:37;;;;;;;33.8;26.3;;;;;;;1.77;82.4873;99685.28;;;;
2020/12/18 02:35:38;;;;;;;39.5;27.5;;;;;;;1.93;82.54199;99700.63;;;;
2020/12/18 02:45:32;;;;;;;30.7;25.1;;;;;;;2.02;81.71777;99699.27;;;;
2020/12/18 02:55:30;;;;;;;39.6;31.3;;;;;;;2.09;82.27148;99703.69;;;;
2020/12/18 03:05:28;;;;;;;46.5;32.5;;;;;;;2.06;82.2793;99678.37;;;;
2020/12/18 03:25:24;;;;;;;34.9;24.5;;;;;;;2.21;81.3125;99692.08;;;;
2020/12/18 03:35:22;;;;;;;41.5;32.9;;;;;;;2.3;80.98828;99698.69;;;;
2020/12/18 03:45:20;;;;;;;37.6;29;;;;;;;2.29;81.44922;99699.71;;;;
2020/12/18 03:55:17;;;;;;;56.4;44;;;;;;;2.34;81.33594;99704.36;;;;
2020/12/18 04:05:15;;;;;;;37.2;33.1;;;;;;;2.35;81.6709;99706;;;;
2020/12/18 04:15:13;;;;;;;44.2;33;;;;;;;2.34;81.56738;99704.36;;;;
2020/12/18 04:25:11;;;;;;;54;38.8;;;;;;;2.28;81.71191;99705.28;;;;
2020/12/18 04:35:09;;;;;;;45.5;38.4;;;;;;;2.27;82.0752;99722.27;;;;
2020/12/18 04:45:07;;;;;;;45;38.6;;;;;;;2.24;82.62207;99739.49;;;;
2020/12/18 04:55:08;;;;;;;44.7;35.3;;;;;;;2.23;82.92871;99732.55;;;;
2020/12/18 05:05:03;;;;;;;43.3;35.2;;;;;;;2.35;82.78711;99737.91;;;;
2020/12/18 05:15:01;;;;;;;37.7;28.6;;;;;;;2.28;83.10449;99753.97;;;;
2020/12/18 05:24:59;;;;;;;36.9;31.1;;;;;;;2.33;83.30273;99761.25;;;;
2020/12/18 05:34:57;;;;;;;47.4;29.6;;;;;;;2.36;83.41797;99766.94;;;;
2020/12/18 05:44:55;;;;;;;33.5;26.6;;;;;;;2.36;83.75;99774.13;;;;
2020/12/18 05:54:54;;;;;;;41.2;29.7;;;;;;;2.38;83.65332;99774.7;;;;
2020/12/18 06:04:51;;;;;;;36.1;29.5;;;;;;;2.3;83.98242;99781.14;;;;
2020/12/18 06:14:50;;;;;;;29.1;26;;;;;;;2.34;84.85938;99789.48;;;;
2020/12/18 06:24:50;;;;;;;37.3;30.3;;;;;;;2.3;85.50391;99801.6;;;;
2020/12/18 06:34:45;;;;;;;36.4;29.1;;;;;;;2.21;86.03809;99800.3;;;;
2020/12/18 06:44:43;;;;;;;51.5;32.8;;;;;;;2.23;86.19629;99804.34;;;;
2020/12/18 06:54:41;;;;;;;42.3;29.2;;;;;;;2.34;85.79785;99816.08;;;;
2020/12/18 07:04:39;;;;;;;41.2;29;;;;;;;2.4;85.8125;99821.32;;;;
2020/12/18 07:14:36;;;;;;;38.1;31.5;;;;;;;2.43;85.71973;99823.53;;;;
2020/12/18 07:24:34;;;;;;;50.4;32.6;;;;;;;2.46;85.79199;99828.39;;;;
2020/12/18 07:34:32;;;;;;;40.2;29.7;;;;;;;2.59;85.78223;99834.59;;;;
2020/12/18 07:44:31;;;;;;;40.9;26.3;;;;;;;2.61;85.69922;99835.98;;;;
2020/12/18 07:54:28;;;;;;;36;28.3;;;;;;;2.74;85.27246;99851.77;;;;
2020/12/18 08:04:26;;;;;;;38.8;28.3;;;;;;;2.84;85.1377;99862.72;;;;
2020/12/18 08:14:24;;;;;;;50.1;33.9;;;;;;;2.82;85.04297;99863.96;;;;
2020/12/18 08:24:31;;;;;;;34.1;29.6;;;;;;;2.93;84.79199;99869.34;;;;
2020/12/18 08:34:20;;;;;;;34.4;29.1;;;;;;;3.03;84.70996;99876.77;;;;
2020/12/18 08:44:19;;;;;;;41.4;33.2;;;;;;;3.27;84.10449;99866.98;;;;
2020/12/18 08:54:17;;;;;;;47.3;32.9;;;;;;;3.41;83.45703;99879.88;;;;
2020/12/18 09:04:15;;;;;;;43.3;36.6;;;;;;;3.57;82.7998;99881.08;;;;
2020/12/18 09:14:14;;;;;;;87.6;70.1;;;;;;;3.71;82.58105;99873.67;;;;
2020/12/18 09:24:11;;;;;;;59.5;48.9;;;;;;;3.77;82.2959;99894.89;;;;
2020/12/18 09:34:09;;;;;;;50.5;39.2;;;;;;;3.87;82.05957;99894.3;;;;
2020/12/18 09:44:07;;;;;;;55.5;39.7;;;;;;;4.03;81.70313;99889.08;;;;
2020/12/18 09:54:05;;;;;;;50.4;37.1;;;;;;;4;81.7627;99889.55;;;;
2020/12/18 10:04:03;;;;;;;49.1;36.8;;;;;;;4.25;81.36621;99889.3;;;;
2020/12/18 10:14:02;;;;;;;45.1;36.2;;;;;;;4.27;81.14746;99886.41;;;;
2020/12/18 10:24:00;;;;;;;47.8;35.1;;;;;;;4.39;81.43652;99889.84;;;;
2020/12/18 10:33:58;;;;;;;57.1;39.5;;;;;;;4.71;80.85059;99890.23;;;;
2020/12/18 10:43:58;;;;;;;45;39;;;;;;;4.87;80.6709;99886.8;;;;
2020/12/18 10:53:54;;;;;;;48.7;33.6;;;;;;;5;79.23633;99883.83;;;;
2020/12/18 11:03:53;;;;;;;56.9;40.8;;;;;;;5.1;79.04492;99884.05;;;;
2020/12/18 11:13:51;;;;;;;47.8;40.9;;;;;;;5.27;79.87793;99879.54;;;;
2020/12/18 11:23:50;;;;;;;48.7;40.4;;;;;;;5.37;78.7373;99870.88;;;;
2020/12/18 11:33:54;;;;;;;46.3;39.3;;;;;;;5.44;78.60352;99876.88;;;;
2020/12/18 11:43:46;;;;;;;48.7;41.8;;;;;;;5.5;79.73145;99871.37;;;;
2020/12/18 11:53:45;;;;;;;53.6;40.7;;;;;;;5.53;77.53125;99876.23;;;;
2020/12/18 12:03:43;;;;;;;55.5;41.4;;;;;;;5.58;78.16211;99867.48;;;;
2020/12/18 12:13:41;;;;;;;52.4;45.9;;;;;;;5.46;78.31934;99869.41;;;;
2020/12/18 12:23:40;;;;;;;56;43.9;;;;;;;5.31;78.74805;99879.88;;;;
2020/12/18 12:33:38;;;;;;;65.9;49.9;;;;;;;5.34;78.88867;99880.2;;;;
2020/12/18 12:43:36;;;;;;;59.5;40.4;;;;;;;5.41;78.41016;99864.81;;;;
2020/12/18 12:53:35;;;;;;;61.2;45.6;;;;;;;5.27;78.88672;99868.03;;;;
2020/12/18 13:03:33;;;;;;;47.9;42.2;;;;;;;5.45;78.55176;99851.73;;;;
2020/12/18 13:13:32;;;;;;;57.6;46.7;;;;;;;5.51;78.46289;99859.63;;;;
2020/12/18 13:23:30;;;;;;;60;50.5;;;;;;;5.48;78.63574;99865.44;;;;
2020/12/18 13:43:27;;;;;;;73;55.3;;;;;;;5.35;79.3584;99860.41;;;;
2020/12/18 13:53:25;;;;;;;64.6;48.3;;;;;;;5.32;79.27344;99860.09;;;;
2020/12/18 14:03:23;;;;;;;50.6;44.4;;;;;;;5.16;79.65723;99864.38;;;;
2020/12/18 14:13:22;;;;;;;60.6;49.1;;;;;;;5.11;79.99121;99871.47;;;;
2020/12/18 14:23:20;;;;;;;59;52.8;;;;;;;4.97;79.8457;99869.1;;;;
2020/12/18 14:33:18;;;;;;;63.9;51.8;;;;;;;4.61;80.43164;99879.36;;;;
2020/12/18 14:43:16;;;;;;;67.4;54.3;;;;;;;4.09;80.21289;99867.86;;;;
2020/12/18 14:53:14;;;;;;;57.9;45.3;;;;;;;3.48;82.5166;99861.13;;;;
2020/12/18 15:03:12;;;;;;;63.8;54.2;;;;;;;2.89;82.99121;99860.17;;;;
2020/12/18 15:13:11;;;;;;;65.7;55.1;;;;;;;2.42;84.58887;99858.36;;;;
2020/12/18 15:23:08;;;;;;;83.3;64.7;;;;;;;2.04;85.53125;99882.52;;;;
2020/12/18 15:33:06;;;;;;;68.6;61.3;;;;;;;1.79;86.61523;99881.73;;;;
2020/12/18 15:43:04;;;;;;;88.5;76.8;;;;;;;1.68;88.56543;99883.27;;;;
2020/12/18 15:53:03;;;;;;;90.1;71.7;;;;;;;1.73;90.48145;99885.27;;;;
2020/12/18 16:03:00;;;;;;;110.2;84.4;;;;;;;1.58;89.89844;99882.94;;;;
2020/12/18 16:13:00;;;;;;;90.7;67.8;;;;;;;1.46;90.19141;99874.03;;;;
2020/12/18 16:22:56;;;;;;;76.6;61;;;;;;;1.32;90.28223;99875.2;;;;
2020/12/18 16:32:53;;;;;;;98.8;75.1;;;;;;;1.18;90.81543;99881.63;;;;
2020/12/18 16:42:51;;;;;;;81.8;61.1;;;;;;;1.13;91.07813;99878.79;;;;
2020/12/18 16:52:50;;;;;;;81.7;67.3;;;;;;;1.02;91.20898;99882.94;;;;
2020/12/18 17:02:47;;;;;;;88.8;68.5;;;;;;;0.9;91.05273;99885.45;;;;
2020/12/18 17:12:45;;;;;;;80.8;56.3;;;;;;;0.83;91.7959;99886.54;;;;
2020/12/18 17:22:42;;;;;;;86.4;63.7;;;;;;;0.58;90.80859;99897.06;;;;
2020/12/18 17:32:40;;;;;;;68.4;55.8;;;;;;;0.43;91.80762;99899.16;;;;
2020/12/18 17:42:38;;;;;;;69;57.9;;;;;;;0.23;90.92188;99914.31;;;;
2020/12/18 17:52:36;;;;;;;72.7;61;;;;;;;0.08;91.07617;99903.94;;;;
2020/12/18 18:02:33;;;;;;;117.6;85.9;;;;;;;0.04;91.6709;99894.77;;;;
2020/12/18 18:12:31;;;;;;;119.6;87.4;;;;;;;0;92.08887;99898.88;;;;
2020/12/18 18:22:29;;;;;;;93.2;72.7;;;;;;;-0.14;91.52344;99887.47;;;;
2020/12/18 18:32:26;;;;;;;89.6;72.8;;;;;;;-0.24;91.25879;99896.85;;;;
2020/12/18 18:42:24;;;;;;;87.5;66.5;;;;;;;-0.64;89.34473;99901.36;;;;
2020/12/18 18:52:21;;;;;;;129;100.1;;;;;;;-0.94;88.38379;99915.98;;;;
2020/12/18 19:02:19;;;;;;;118.9;94;;;;;;;-1.22;88.24121;99922.22;;;;
2020/12/18 19:12:17;;;;;;;86.8;66.1;;;;;;;-1.47;88.43848;99915.81;;;;
2020/12/18 19:22:14;;;;;;;131.1;96.8;;;;;;;-1.6;89.00098;99913.13;;;;
2020/12/18 19:32:12;;;;;;;147.8;111.1;;;;;;;-1.68;88.96387;99924.66;;;;
2020/12/18 19:42:09;;;;;;;139.4;111.2;;;;;;;-1.72;89.68652;99930.53;;;;
2020/12/18 19:52:10;;;;;;;124;90.3;;;;;;;-1.76;89.7666;99921.35;;;;
2020/12/18 20:02:04;;;;;;;113.9;89.7;;;;;;;-1.69;89.74902;99912.45;;;;
2020/12/18 20:12:02;;;;;;;105.9;83.1;;;;;;;-1.66;89.86328;99908.59;;;;
2020/12/18 20:22:00;;;;;;;106.1;82.5;;;;;;;-1.81;89.9082;99900.83;;;;
2020/12/18 20:31:57;;;;;;;107.3;75.7;;;;;;;-1.86;89.05664;99897.11;;;;
2020/12/18 20:41:55;;;;;;;119.3;97.3;;;;;;;-1.83;88.92188;99894.9;;;;
2020/12/18 20:51:53;;;;;;;104.6;79.2;;;;;;;-1.92;89.07813;99889.98;;;;
2020/12/18 21:01:51;;;;;;;95.4;68.4;;;;;;;-1.85;89.79199;99882.91;;;;
2020/12/18 21:11:48;;;;;;;85.3;65.8;;;;;;;-1.86;89.89844;99879.44;;;;
2020/12/18 21:21:46;;;;;;;78;59.9;;;;;;;-1.8;90.51074;99883.12;;;;
2020/12/18 21:31:43;;;;;;;95.1;71.9;;;;;;;-1.81;89.78809;99884.97;;;;
2020/12/18 21:41:40;;;;;;;77.5;60.2;;;;;;;-1.79;89.52051;99879.47;;;;
2020/12/18 21:51:38;;;;;;;74.6;58.9;;;;;;;-1.79;88.87695;99880.29;;;;
2020/12/18 22:01:36;;;;;;;80.2;58;;;;;;;-1.68;89.22656;99878.92;;;;
2020/12/18 22:11:33;;;;;;;69.7;57;;;;;;;-1.77;89.29492;99872.97;;;;
2020/12/18 22:21:31;;;;;;;62.4;52.2;;;;;;;-1.88;89.16113;99859.52;;;;
2020/12/18 22:31:28;;;;;;;95.5;70.7;;;;;;;-2.05;89.7041;99859.03;;;;
2020/12/18 22:41:26;;;;;;;95.8;71;;;;;;;-2.02;89.67871;99858.64;;;;
2020/12/18 22:51:24;;;;;;;103.8;84.8;;;;;;;-2.11;89.78223;99865.89;;;;
2020/12/18 23:01:21;;;;;;;92.7;64.3;;;;;;;-2.26;89.7373;99869.67;;;;
2020/12/18 23:11:19;;;;;;;92.6;77;;;;;;;-2.37;88.62402;99865.73;;;;
2020/12/18 23:21:16;;;;;;;82.9;61.1;;;;;;;-2.55;88.82715;99854.84;;;;
2020/12/18 23:31:14;;;;;;;79.6;54.6;;;;;;;-2.62;88.7793;99857.43;;;;
2020/12/18 23:41:11;;;;;;;82;62.6;;;;;;;-2.55;88.62012;99862.76;;;;
2020/12/18 23:51:09;;;;;;;89.3;57.5;;;;;;;-2.54;89.27344;99861.76;;;;
